Startpagina
METAR-TAF:

METAR-TAF

Vliegvelden :

Vliegbasis Leeuwarden

Leeuwarden, Nederland

breedte: 53-13N, lengte: 005-46E, hoogte: 1 m

Actueel weer

Dit bericht is 40 minuten geleden gemaakt, om 19:55 UTC
Wind 8 kt uit het noorden
Temperatuur 13°C
Vochtigheid 82%
Druk 1014 hPa
Zicht 10 km of meer

METAR: EHLW 211955Z AUTO 01008KT 9999 NCD 13/10 Q1014 BLU

Tijdstip: 22:35 (20:35 UTC)

Verwachting

Dit bericht is 3 uur en het 58 minuten geleden gemaakt, om 16:37 UTC
Verwachting geldig van 21 om 17 UTC tot 22 om 05 UTC
Wind 12 kt uit het noorden
Zicht 10 km of meer
Weinig wolken op 1700 ft
Tijdelijke
van 21 om 17 UTC tot 22 om 05 UTC
Verspreide wolken op 1700 ft
Kans 40% :
Tijdelijke
van 21 om 17 UTC tot 21 om 24 UTC
Verspreide wolken op 1200 ft
Gebroken wolken op 1800 ft
Wijzigt naar
van 21 om 20 UTC tot 21 om 22 UTC
Wind 7 kt uit het noorden

TAF: EHLW 211637Z 2117/2205 36012KT 9999 FEW017 TEMPO 2117/2205 SCT017 PROB40 TEMPO 2117/2124 SCT012 BKN018 BECMG 2120/2122 36007KT

Waarnemingen en weersverwachtingen van meer dan 4000 vliegvelden (METAR en TAF).

De beschikbare stations zijn de gele en rode punten op de kaart.

Ga met uw muis naar het station om de naam te zien.

Klik dan om waarnemingen en weersverwachtingen te zien.

kaart wijzigen: klik op de groene knoppen met een zwart kruis om in te zoomen, op de groene knop met een streepje om uit te zoomen of op de groene pijlen voor aangrenzende kaarten.


METAR-TAF: